sensor_id;sensor_type;location;lat;lon;timestamp;P1;durP1;ratioP1;P2;durP2;ratioP2
64520;SDS011;50896;46.714;17.322;2023-04-02T00:00:26;2.15;;;1.70;;
64520;SDS011;50896;46.714;17.322;2023-04-02T00:07:57;4.97;;;2.38;;
64520;SDS011;50896;46.714;17.322;2023-04-02T00:10:45;3.93;;;2.10;;
64520;SDS011;50896;46.714;17.322;2023-04-02T00:15:48;2.90;;;2.13;;
64520;SDS011;50896;46.714;17.322;2023-04-02T00:18:20;3.67;;;2.03;;
64520;SDS011;50896;46.714;17.322;2023-04-02T00:20:49;4.97;;;2.20;;
64520;SDS011;50896;46.714;17.322;2023-04-02T00:23:19;6.13;;;2.10;;
64520;SDS011;50896;46.714;17.322;2023-04-02T00:25:46;3.53;;;1.90;;
64520;SDS011;50896;46.714;17.322;2023-04-02T00:28:17;3.28;;;2.08;;
64520;SDS011;50896;46.714;17.322;2023-04-02T00:30:55;5.38;;;2.15;;
64520;SDS011;50896;46.714;17.322;2023-04-02T00:33:26;2.88;;;1.83;;
64520;SDS011;50896;46.714;17.322;2023-04-02T00:35:55;6.03;;;2.08;;
64520;SDS011;50896;46.714;17.322;2023-04-02T00:38:24;3.08;;;1.67;;
64520;SDS011;50896;46.714;17.322;2023-04-02T00:40:54;2.63;;;1.70;;
64520;SDS011;50896;46.714;17.322;2023-04-02T00:43:24;2.78;;;1.80;;
64520;SDS011;50896;46.714;17.322;2023-04-02T00:45:57;4.00;;;1.80;;
64520;SDS011;50896;46.714;17.322;2023-04-02T00:48:49;2.70;;;1.75;;
64520;SDS011;50896;46.714;17.322;2023-04-02T00:53:54;1.38;;;1.27;;
64520;SDS011;50896;46.714;17.322;2023-04-02T00:56:35;2.95;;;1.77;;
64520;SDS011;50896;46.714;17.322;2023-04-02T00:59:15;2.97;;;1.83;;
64520;SDS011;50896;46.714;17.322;2023-04-02T01:01:46;3.13;;;1.88;;
64520;SDS011;50896;46.714;17.322;2023-04-02T01:04:27;3.63;;;1.73;;
64520;SDS011;50896;46.714;17.322;2023-04-02T01:07:03;2.20;;;1.52;;
64520;SDS011;50896;46.714;17.322;2023-04-02T01:12:35;4.82;;;2.00;;
64520;SDS011;50896;46.714;17.322;2023-04-02T01:17:38;2.50;;;1.80;;
64520;SDS011;50896;46.714;17.322;2023-04-02T01:23:12;3.90;;;2.17;;
64520;SDS011;50896;46.714;17.322;2023-04-02T01:28:44;2.97;;;2.03;;
64520;SDS011;50896;46.714;17.322;2023-04-02T01:31:27;2.80;;;2.00;;
64520;SDS011;50896;46.714;17.322;2023-04-02T01:33:56;3.33;;;2.08;;
64520;SDS011;50896;46.714;17.322;2023-04-02T01:36:30;2.70;;;2.17;;
64520;SDS011;50896;46.714;17.322;2023-04-02T01:42:14;3.83;;;2.40;;
64520;SDS011;50896;46.714;17.322;2023-04-02T01:45:07;2.75;;;2.08;;
64520;SDS011;50896;46.714;17.322;2023-04-02T01:47:37;3.90;;;2.55;;
64520;SDS011;50896;46.714;17.322;2023-04-02T01:52:48;5.35;;;2.08;;
64520;SDS011;50896;46.714;17.322;2023-04-02T01:55:19;4.90;;;2.10;;
64520;SDS011;50896;46.714;17.322;2023-04-02T01:57:54;3.33;;;2.30;;
64520;SDS011;50896;46.714;17.322;2023-04-02T02:00:23;4.43;;;2.40;;
64520;SDS011;50896;46.714;17.322;2023-04-02T02:02:54;2.38;;;1.90;;
64520;SDS011;50896;46.714;17.322;2023-04-02T02:05:22;4.70;;;1.90;;
64520;SDS011;50896;46.714;17.322;2023-04-02T02:07:51;2.78;;;1.83;;
64520;SDS011;50896;46.714;17.322;2023-04-02T02:10:23;3.88;;;1.90;;
64520;SDS011;50896;46.714;17.322;2023-04-02T02:12:58;4.68;;;1.88;;
64520;SDS011;50896;46.714;17.322;2023-04-02T02:15:26;3.60;;;1.85;;
64520;SDS011;50896;46.714;17.322;2023-04-02T02:17:55;2.47;;;1.50;;
64520;SDS011;50896;46.714;17.322;2023-04-02T02:20:25;2.03;;;1.67;;
64520;SDS011;50896;46.714;17.322;2023-04-02T02:22:53;5.15;;;2.78;;
64520;SDS011;50896;46.714;17.322;2023-04-02T02:25:23;2.22;;;1.25;;
64520;SDS011;50896;46.714;17.322;2023-04-02T02:27:58;2.47;;;1.45;;
64520;SDS011;50896;46.714;17.322;2023-04-02T02:30:31;2.05;;;1.20;;
64520;SDS011;50896;46.714;17.322;2023-04-02T02:33:05;1.98;;;1.00;;
64520;SDS011;50896;46.714;17.322;2023-04-02T02:36:42;0.30;;;0.20;;
64520;SDS011;50896;46.714;17.322;2023-04-02T02:41:40;0.32;;;0.32;;
64520;SDS011;50896;46.714;17.322;2023-04-02T02:47:01;0.10;;;0.10;;
64520;SDS011;50896;46.714;17.322;2023-04-02T02:49:33;0.95;;;0.10;;
64520;SDS011;50896;46.714;17.322;2023-04-02T02:52:11;0.20;;;0.10;;
64520;SDS011;50896;46.714;17.322;2023-04-02T02:55:05;0.30;;;0.20;;
64520;SDS011;50896;46.714;17.322;2023-04-02T02:58:13;2.50;;;0.20;;
64520;SDS011;50896;46.714;17.322;2023-04-02T03:00:58;0.15;;;0.10;;
64520;SDS011;50896;46.714;17.322;2023-04-02T03:03:27;0.43;;;0.20;;
64520;SDS011;50896;46.714;17.322;2023-04-02T03:06:03;0.40;;;0.10;;
64520;SDS011;50896;46.714;17.322;2023-04-02T03:08:40;0.45;;;0.10;;
64520;SDS011;50896;46.714;17.322;2023-04-02T03:11:16;0.32;;;0.17;;
64520;SDS011;50896;46.714;17.322;2023-04-02T03:13:52;0.20;;;0.13;;
64520;SDS011;50896;46.714;17.322;2023-04-02T03:16:30;1.35;;;0.10;;
64520;SDS011;50896;46.714;17.322;2023-04-02T03:19:19;0.52;;;0.10;;
64520;SDS011;50896;46.714;17.322;2023-04-02T03:22:14;0.10;;;0.10;;
64520;SDS011;50896;46.714;17.322;2023-04-02T03:24:54;0.10;;;0.10;;
64520;SDS011;50896;46.714;17.322;2023-04-02T03:27:31;0.68;;;0.10;;
64520;SDS011;50896;46.714;17.322;2023-04-02T03:30:19;0.17;;;0.10;;
64520;SDS011;50896;46.714;17.322;2023-04-02T03:33:10;0.20;;;0.20;;
64520;SDS011;50896;46.714;17.322;2023-04-02T03:35:53;0.20;;;0.10;;
64520;SDS011;50896;46.714;17.322;2023-04-02T03:38:34;0.10;;;0.10;;
64520;SDS011;50896;46.714;17.322;2023-04-02T03:41:17;0.70;;;0.10;;
64520;SDS011;50896;46.714;17.322;2023-04-02T03:43:52;0.20;;;0.10;;
64520;SDS011;50896;46.714;17.322;2023-04-02T03:49:08;0.50;;;0.10;;
64520;SDS011;50896;46.714;17.322;2023-04-02T03:54:36;0.17;;;0.10;;
64520;SDS011;50896;46.714;17.322;2023-04-02T03:57:04;0.20;;;0.10;;
64520;SDS011;50896;46.714;17.322;2023-04-02T04:02:57;0.13;;;0.13;;
64520;SDS011;50896;46.714;17.322;2023-04-02T04:05:33;0.70;;;0.45;;
64520;SDS011;50896;46.714;17.322;2023-04-02T04:08:05;0.60;;;0.40;;
64520;SDS011;50896;46.714;17.322;2023-04-02T04:10:39;0.98;;;0.60;;
64520;SDS011;50896;46.714;17.322;2023-04-02T04:13:12;1.02;;;0.80;;
64520;SDS011;50896;46.714;17.322;2023-04-02T04:15:54;1.63;;;1.08;;
64520;SDS011;50896;46.714;17.322;2023-04-02T04:21:13;2.90;;;1.40;;
64520;SDS011;50896;46.714;17.322;2023-04-02T04:24:00;1.73;;;1.35;;
64520;SDS011;50896;46.714;17.322;2023-04-02T04:26:35;1.70;;;1.30;;
64520;SDS011;50896;46.714;17.322;2023-04-02T04:29:17;1.52;;;1.20;;
64520;SDS011;50896;46.714;17.322;2023-04-02T04:32:29;3.28;;;1.67;;
64520;SDS011;50896;46.714;17.322;2023-04-02T04:38:02;2.55;;;1.40;;
64520;SDS011;50896;46.714;17.322;2023-04-02T04:40:35;2.38;;;1.63;;
64520;SDS011;50896;46.714;17.322;2023-04-02T04:43:12;2.53;;;1.60;;
64520;SDS011;50896;46.714;17.322;2023-04-02T04:45:56;5.20;;;1.77;;
64520;SDS011;50896;46.714;17.322;2023-04-02T04:48:34;1.85;;;1.30;;
64520;SDS011;50896;46.714;17.322;2023-04-02T04:51:07;1.67;;;1.10;;
64520;SDS011;50896;46.714;17.322;2023-04-02T04:53:47;1.13;;;1.00;;
64520;SDS011;50896;46.714;17.322;2023-04-02T04:56:20;1.48;;;1.00;;
64520;SDS011;50896;46.714;17.322;2023-04-02T04:59:00;1.42;;;0.88;;
64520;SDS011;50896;46.714;17.322;2023-04-02T05:04:32;0.77;;;0.75;;
64520;SDS011;50896;46.714;17.322;2023-04-02T05:07:09;1.27;;;0.77;;
64520;SDS011;50896;46.714;17.322;2023-04-02T05:23:27;0.90;;;0.82;;
64520;SDS011;50896;46.714;17.322;2023-04-02T05:31:36;1.60;;;0.80;;
64520;SDS011;50896;46.714;17.322;2023-04-02T05:34:10;1.88;;;0.90;;
64520;SDS011;50896;46.714;17.322;2023-04-02T05:36:37;1.33;;;0.57;;
64520;SDS011;50896;46.714;17.322;2023-04-02T05:39:08;2.00;;;0.90;;
64520;SDS011;50896;46.714;17.322;2023-04-02T05:41:46;1.38;;;0.50;;
64520;SDS011;50896;46.714;17.322;2023-04-02T05:44:32;0.52;;;0.30;;
64520;SDS011;50896;46.714;17.322;2023-04-02T05:47:11;0.20;;;0.20;;
64520;SDS011;50896;46.714;17.322;2023-04-02T05:49:49;0.20;;;0.13;;
64520;SDS011;50896;46.714;17.322;2023-04-02T05:52:49;0.10;;;0.10;;
64520;SDS011;50896;46.714;17.322;2023-04-02T05:55:26;0.20;;;0.20;;
64520;SDS011;50896;46.714;17.322;2023-04-02T06:03:44;0.22;;;0.10;;
64520;SDS011;50896;46.714;17.322;2023-04-02T06:09:23;0.10;;;0.10;;
64520;SDS011;50896;46.714;17.322;2023-04-02T06:12:12;0.00;;;0.00;;
64520;SDS011;50896;46.714;17.322;2023-04-02T06:14:41;0.10;;;0.10;;
64520;SDS011;50896;46.714;17.322;2023-04-02T06:17:11;0.10;;;0.08;;
64520;SDS011;50896;46.714;17.322;2023-04-02T06:19:41;0.10;;;0.10;;
64520;SDS011;50896;46.714;17.322;2023-04-02T06:24:58;2.33;;;0.10;;
64520;SDS011;50896;46.714;17.322;2023-04-02T06:27:36;0.47;;;0.15;;
64520;SDS011;50896;46.714;17.322;2023-04-02T06:30:19;0.40;;;0.20;;
64520;SDS011;50896;46.714;17.322;2023-04-02T06:33:12;0.32;;;0.22;;
64520;SDS011;50896;46.714;17.322;2023-04-02T06:35:43;0.45;;;0.10;;
64520;SDS011;50896;46.714;17.322;2023-04-02T06:38:23;1.15;;;0.30;;
64520;SDS011;50896;46.714;17.322;2023-04-02T06:40:56;0.15;;;0.10;;
64520;SDS011;50896;46.714;17.322;2023-04-02T06:52:52;0.40;;;0.20;;
64520;SDS011;50896;46.714;17.322;2023-04-02T06:55:57;0.50;;;0.20;;
64520;SDS011;50896;46.714;17.322;2023-04-02T06:58:32;0.98;;;0.20;;
64520;SDS011;50896;46.714;17.322;2023-04-02T07:01:00;0.20;;;0.20;;
64520;SDS011;50896;46.714;17.322;2023-04-02T07:03:38;0.20;;;0.20;;
64520;SDS011;50896;46.714;17.322;2023-04-02T07:06:17;0.57;;;0.30;;
64520;SDS011;50896;46.714;17.322;2023-04-02T07:08:48;0.85;;;0.25;;
64520;SDS011;50896;46.714;17.322;2023-04-02T07:11:17;0.70;;;0.28;;
64520;SDS011;50896;46.714;17.322;2023-04-02T07:13:49;1.33;;;0.30;;
64520;SDS011;50896;46.714;17.322;2023-04-02T07:16:18;0.10;;;0.10;;
64520;SDS011;50896;46.714;17.322;2023-04-02T07:18:47;0.30;;;0.30;;
64520;SDS011;50896;46.714;17.322;2023-04-02T07:21:14;0.40;;;0.30;;
64520;SDS011;50896;46.714;17.322;2023-04-02T07:23:43;1.85;;;0.20;;
64520;SDS011;50896;46.714;17.322;2023-04-02T07:26:18;0.40;;;0.30;;
64520;SDS011;50896;46.714;17.322;2023-04-02T07:28:48;0.30;;;0.30;;
64520;SDS011;50896;46.714;17.322;2023-04-02T07:33:43;0.30;;;0.20;;
64520;SDS011;50896;46.714;17.322;2023-04-02T07:36:14;2.13;;;0.28;;
64520;SDS011;50896;46.714;17.322;2023-04-02T07:38:43;0.20;;;0.20;;
64520;SDS011;50896;46.714;17.322;2023-04-02T07:41:09;0.70;;;0.30;;
64520;SDS011;50896;46.714;17.322;2023-04-02T07:43:37;0.30;;;0.20;;
64520;SDS011;50896;46.714;17.322;2023-04-02T07:46:05;0.20;;;0.20;;
64520;SDS011;50896;46.714;17.322;2023-04-02T07:48:32;1.13;;;0.30;;
64520;SDS011;50896;46.714;17.322;2023-04-02T07:50:59;0.35;;;0.35;;
64520;SDS011;50896;46.714;17.322;2023-04-02T07:53:32;0.97;;;0.37;;
64520;SDS011;50896;46.714;17.322;2023-04-02T07:56:06;0.32;;;0.25;;
64520;SDS011;50896;46.714;17.322;2023-04-02T07:58:33;0.47;;;0.30;;
64520;SDS011;50896;46.714;17.322;2023-04-02T08:01:01;0.20;;;0.20;;
64520;SDS011;50896;46.714;17.322;2023-04-02T08:03:29;0.95;;;0.30;;
64520;SDS011;50896;46.714;17.322;2023-04-02T08:05:57;0.20;;;0.20;;
64520;SDS011;50896;46.714;17.322;2023-04-02T08:08:24;0.28;;;0.28;;
64520;SDS011;50896;46.714;17.322;2023-04-02T08:10:51;0.63;;;0.35;;
64520;SDS011;50896;46.714;17.322;2023-04-02T08:13:18;0.38;;;0.20;;
64520;SDS011;50896;46.714;17.322;2023-04-02T08:15:45;0.25;;;0.20;;
64520;SDS011;50896;46.714;17.322;2023-04-02T08:18:12;0.20;;;0.20;;
64520;SDS011;50896;46.714;17.322;2023-04-02T08:20:39;0.30;;;0.30;;
64520;SDS011;50896;46.714;17.322;2023-04-02T08:23:11;0.70;;;0.30;;
64520;SDS011;50896;46.714;17.322;2023-04-02T08:25:40;1.67;;;0.30;;
64520;SDS011;50896;46.714;17.322;2023-04-02T08:28:07;0.40;;;0.40;;
64520;SDS011;50896;46.714;17.322;2023-04-02T08:30:34;0.22;;;0.20;;
64520;SDS011;50896;46.714;17.322;2023-04-02T08:33:02;0.47;;;0.22;;
64520;SDS011;50896;46.714;17.322;2023-04-02T08:35:30;0.75;;;0.20;;
64520;SDS011;50896;46.714;17.322;2023-04-02T08:37:57;0.35;;;0.30;;
64520;SDS011;50896;46.714;17.322;2023-04-02T08:40:46;0.88;;;0.28;;
64520;SDS011;50896;46.714;17.322;2023-04-02T08:43:21;0.20;;;0.20;;
64520;SDS011;50896;46.714;17.322;2023-04-02T08:46:00;1.40;;;0.30;;
64520;SDS011;50896;46.714;17.322;2023-04-02T08:48:33;2.05;;;0.20;;
64520;SDS011;50896;46.714;17.322;2023-04-02T08:51:03;0.20;;;0.20;;
64520;SDS011;50896;46.714;17.322;2023-04-02T08:53:35;0.75;;;0.22;;
64520;SDS011;50896;46.714;17.322;2023-04-02T08:58:49;0.63;;;0.20;;
64520;SDS011;50896;46.714;17.322;2023-04-02T09:03:53;0.32;;;0.20;;
64520;SDS011;50896;46.714;17.322;2023-04-02T09:06:23;0.25;;;0.20;;
64520;SDS011;50896;46.714;17.322;2023-04-02T09:08:51;0.47;;;0.30;;
64520;SDS011;50896;46.714;17.322;2023-04-02T09:11:22;0.35;;;0.20;;
64520;SDS011;50896;46.714;17.322;2023-04-02T09:13:58;0.10;;;0.10;;
64520;SDS011;50896;46.714;17.322;2023-04-02T09:16:38;0.55;;;0.20;;
64520;SDS011;50896;46.714;17.322;2023-04-02T09:19:12;0.30;;;0.20;;
64520;SDS011;50896;46.714;17.322;2023-04-02T09:21:59;0.75;;;0.20;;
64520;SDS011;50896;46.714;17.322;2023-04-02T09:24:52;0.13;;;0.13;;
64520;SDS011;50896;46.714;17.322;2023-04-02T09:27:19;0.88;;;0.20;;
64520;SDS011;50896;46.714;17.322;2023-04-02T09:29:50;0.32;;;0.30;;
64520;SDS011;50896;46.714;17.322;2023-04-02T09:35:17;0.20;;;0.20;;
64520;SDS011;50896;46.714;17.322;2023-04-02T09:40:59;0.65;;;0.17;;
64520;SDS011;50896;46.714;17.322;2023-04-02T09:43:47;0.88;;;0.20;;
64520;SDS011;50896;46.714;17.322;2023-04-02T09:46:22;0.68;;;0.22;;
64520;SDS011;50896;46.714;17.322;2023-04-02T09:51:30;1.20;;;0.10;;
64520;SDS011;50896;46.714;17.322;2023-04-02T09:56:30;0.55;;;0.20;;
64520;SDS011;50896;46.714;17.322;2023-04-02T09:59:18;0.20;;;0.20;;
64520;SDS011;50896;46.714;17.322;2023-04-02T10:13:01;0.68;;;0.20;;
64520;SDS011;50896;46.714;17.322;2023-04-02T10:15:33;0.45;;;0.20;;
64520;SDS011;50896;46.714;17.322;2023-04-02T10:18:13;0.60;;;0.30;;
64520;SDS011;50896;46.714;17.322;2023-04-02T10:20:46;0.32;;;0.20;;
64520;SDS011;50896;46.714;17.322;2023-04-02T10:23:18;1.70;;;0.40;;
64520;SDS011;50896;46.714;17.322;2023-04-02T10:25:47;0.38;;;0.20;;
64520;SDS011;50896;46.714;17.322;2023-04-02T10:28:38;0.70;;;0.38;;
64520;SDS011;50896;46.714;17.322;2023-04-02T10:31:25;1.25;;;0.30;;
64520;SDS011;50896;46.714;17.322;2023-04-02T10:34:00;1.13;;;0.20;;
64520;SDS011;50896;46.714;17.322;2023-04-02T10:47:37;1.15;;;0.20;;
64520;SDS011;50896;46.714;17.322;2023-04-02T10:50:17;1.25;;;0.30;;
64520;SDS011;50896;46.714;17.322;2023-04-02T10:53:05;0.47;;;0.20;;
64520;SDS011;50896;46.714;17.322;2023-04-02T10:55:43;1.23;;;0.30;;
64520;SDS011;50896;46.714;17.322;2023-04-02T11:00:51;3.05;;;0.30;;
64520;SDS011;50896;46.714;17.322;2023-04-02T11:06:04;0.52;;;0.20;;
64520;SDS011;50896;46.714;17.322;2023-04-02T11:11:17;0.50;;;0.30;;
64520;SDS011;50896;46.714;17.322;2023-04-02T11:13:50;2.47;;;0.30;;
64520;SDS011;50896;46.714;17.322;2023-04-02T11:16:22;0.70;;;0.30;;
64520;SDS011;50896;46.714;17.322;2023-04-02T11:19:19;1.13;;;0.20;;
64520;SDS011;50896;46.714;17.322;2023-04-02T11:27:05;0.50;;;0.20;;
64520;SDS011;50896;46.714;17.322;2023-04-02T11:32:28;1.42;;;0.30;;
64520;SDS011;50896;46.714;17.322;2023-04-02T11:35:01;0.17;;;0.10;;
64520;SDS011;50896;46.714;17.322;2023-04-02T11:37:55;0.50;;;0.10;;
64520;SDS011;50896;46.714;17.322;2023-04-02T11:41:07;0.22;;;0.20;;
64520;SDS011;50896;46.714;17.322;2023-04-02T11:46:04;0.10;;;0.10;;
64520;SDS011;50896;46.714;17.322;2023-04-02T11:48:50;1.38;;;0.20;;
64520;SDS011;50896;46.714;17.322;2023-04-02T11:53:48;0.20;;;0.20;;
64520;SDS011;50896;46.714;17.322;2023-04-02T11:59:36;0.60;;;0.20;;
64520;SDS011;50896;46.714;17.322;2023-04-02T12:02:32;0.50;;;0.10;;
64520;SDS011;50896;46.714;17.322;2023-04-02T12:10:56;0.20;;;0.20;;
64520;SDS011;50896;46.714;17.322;2023-04-02T12:16:13;0.10;;;0.10;;
64520;SDS011;50896;46.714;17.322;2023-04-02T12:18:42;0.50;;;0.22;;
64520;SDS011;50896;46.714;17.322;2023-04-02T12:23:44;0.88;;;0.30;;
64520;SDS011;50896;46.714;17.322;2023-04-02T12:31:59;0.55;;;0.28;;
64520;SDS011;50896;46.714;17.322;2023-04-02T12:34:27;1.33;;;0.20;;
64520;SDS011;50896;46.714;17.322;2023-04-02T12:37:02;0.75;;;0.30;;
64520;SDS011;50896;46.714;17.322;2023-04-02T12:39:31;0.25;;;0.25;;
64520;SDS011;50896;46.714;17.322;2023-04-02T12:41:59;1.10;;;0.38;;
64520;SDS011;50896;46.714;17.322;2023-04-02T12:44:27;0.73;;;0.30;;
64520;SDS011;50896;46.714;17.322;2023-04-02T12:46:55;0.35;;;0.20;;
64520;SDS011;50896;46.714;17.322;2023-04-02T12:52:01;0.70;;;0.30;;
64520;SDS011;50896;46.714;17.322;2023-04-02T12:54:30;0.40;;;0.35;;
64520;SDS011;50896;46.714;17.322;2023-04-02T13:02:49;1.33;;;0.30;;
64520;SDS011;50896;46.714;17.322;2023-04-02T13:10:29;0.30;;;0.10;;
64520;SDS011;50896;46.714;17.322;2023-04-02T13:12:56;0.15;;;0.10;;
64520;SDS011;50896;46.714;17.322;2023-04-02T13:15:29;1.45;;;0.30;;
64520;SDS011;50896;46.714;17.322;2023-04-02T13:18:21;1.23;;;0.20;;
64520;SDS011;50896;46.714;17.322;2023-04-02T13:20:58;0.20;;;0.20;;
64520;SDS011;50896;46.714;17.322;2023-04-02T13:25:55;0.20;;;0.20;;
64520;SDS011;50896;46.714;17.322;2023-04-02T13:28:24;0.17;;;0.10;;
64520;SDS011;50896;46.714;17.322;2023-04-02T13:30:51;0.20;;;0.20;;
64520;SDS011;50896;46.714;17.322;2023-04-02T13:33:18;0.20;;;0.10;;
64520;SDS011;50896;46.714;17.322;2023-04-02T13:35:45;0.43;;;0.25;;
64520;SDS011;50896;46.714;17.322;2023-04-02T13:38:12;0.30;;;0.10;;
64520;SDS011;50896;46.714;17.322;2023-04-02T13:40:39;5.38;;;3.72;;
64520;SDS011;50896;46.714;17.322;2023-04-02T13:43:06;2.30;;;2.10;;
64520;SDS011;50896;46.714;17.322;2023-04-02T13:45:42;8.40;;;7.68;;
64520;SDS011;50896;46.714;17.322;2023-04-02T13:48:16;6.45;;;5.82;;
64520;SDS011;50896;46.714;17.322;2023-04-02T13:50:43;0.70;;;0.70;;
64520;SDS011;50896;46.714;17.322;2023-04-02T13:53:14;0.30;;;0.30;;
64520;SDS011;50896;46.714;17.322;2023-04-02T13:55:50;1.08;;;0.30;;
64520;SDS011;50896;46.714;17.322;2023-04-02T13:58:18;0.65;;;0.40;;
64520;SDS011;50896;46.714;17.322;2023-04-02T14:00:45;0.10;;;0.10;;
64520;SDS011;50896;46.714;17.322;2023-04-02T14:03:14;0.95;;;0.60;;
64520;SDS011;50896;46.714;17.322;2023-04-02T14:24:59;0.17;;;0.10;;
64520;SDS011;50896;46.714;17.322;2023-04-02T14:30:21;0.52;;;0.10;;
64520;SDS011;50896;46.714;17.322;2023-04-02T14:35:35;1.00;;;0.10;;
64520;SDS011;50896;46.714;17.322;2023-04-02T14:43:32;0.73;;;0.10;;
64520;SDS011;50896;46.714;17.322;2023-04-02T14:46:06;1.02;;;0.10;;
64520;SDS011;50896;46.714;17.322;2023-04-02T14:48:50;1.25;;;0.10;;
64520;SDS011;50896;46.714;17.322;2023-04-02T14:51:35;0.25;;;0.20;;
64520;SDS011;50896;46.714;17.322;2023-04-02T14:57:09;0.55;;;0.30;;
64520;SDS011;50896;46.714;17.322;2023-04-02T15:02:19;3.17;;;0.70;;
64520;SDS011;50896;46.714;17.322;2023-04-02T15:04:58;1.55;;;0.30;;
64520;SDS011;50896;46.714;17.322;2023-04-02T15:07:36;0.20;;;0.20;;
64520;SDS011;50896;46.714;17.322;2023-04-02T15:13:11;1.52;;;0.30;;
64520;SDS011;50896;46.714;17.322;2023-04-02T15:16:04;0.20;;;0.20;;
64520;SDS011;50896;46.714;17.322;2023-04-02T15:18:36;0.25;;;0.22;;
64520;SDS011;50896;46.714;17.322;2023-04-02T15:29:41;0.20;;;0.20;;
64520;SDS011;50896;46.714;17.322;2023-04-02T15:37:49;0.28;;;0.28;;
64520;SDS011;50896;46.714;17.322;2023-04-02T15:40:38;0.20;;;0.20;;
64520;SDS011;50896;46.714;17.322;2023-04-02T15:45:49;0.45;;;0.32;;
64520;SDS011;50896;46.714;17.322;2023-04-02T16:08:53;0.93;;;0.33;;
64520;SDS011;50896;46.714;17.322;2023-04-02T16:11:27;0.35;;;0.35;;
64520;SDS011;50896;46.714;17.322;2023-04-02T16:16:58;1.17;;;0.55;;
64520;SDS011;50896;46.714;17.322;2023-04-02T16:19:56;0.40;;;0.40;;
64520;SDS011;50896;46.714;17.322;2023-04-02T16:22:32;0.63;;;0.47;;
64520;SDS011;50896;46.714;17.322;2023-04-02T16:25:09;0.77;;;0.52;;
64520;SDS011;50896;46.714;17.322;2023-04-02T16:27:49;2.10;;;0.98;;
64520;SDS011;50896;46.714;17.322;2023-04-02T16:33:24;1.38;;;1.00;;
64520;SDS011;50896;46.714;17.322;2023-04-02T16:38:57;1.10;;;0.93;;
64520;SDS011;50896;46.714;17.322;2023-04-02T16:41:51;1.20;;;1.10;;
64520;SDS011;50896;46.714;17.322;2023-04-02T16:49:51;1.42;;;1.10;;
64520;SDS011;50896;46.714;17.322;2023-04-02T16:52:33;1.63;;;1.05;;
64520;SDS011;50896;46.714;17.322;2023-04-02T17:03:46;2.28;;;1.60;;
64520;SDS011;50896;46.714;17.322;2023-04-02T17:16:56;3.80;;;3.38;;
64520;SDS011;50896;46.714;17.322;2023-04-02T17:19:28;4.57;;;3.35;;
64520;SDS011;50896;46.714;17.322;2023-04-02T17:21:57;3.50;;;3.20;;
64520;SDS011;50896;46.714;17.322;2023-04-02T17:24:38;5.28;;;3.47;;
64520;SDS011;50896;46.714;17.322;2023-04-02T17:27:17;3.97;;;3.25;;
64520;SDS011;50896;46.714;17.322;2023-04-02T17:29:52;3.90;;;3.50;;
64520;SDS011;50896;46.714;17.322;2023-04-02T17:32:28;4.28;;;3.67;;
64520;SDS011;50896;46.714;17.322;2023-04-02T17:35:01;3.60;;;3.00;;
64520;SDS011;50896;46.714;17.322;2023-04-02T17:40:37;4.18;;;2.88;;
64520;SDS011;50896;46.714;17.322;2023-04-02T17:43:26;2.90;;;2.60;;
64520;SDS011;50896;46.714;17.322;2023-04-02T17:48:47;5.40;;;2.40;;
64520;SDS011;50896;46.714;17.322;2023-04-02T18:03:34;2.30;;;2.10;;
64520;SDS011;50896;46.714;17.322;2023-04-02T18:06:07;3.75;;;1.98;;
64520;SDS011;50896;46.714;17.322;2023-04-02T18:14:02;3.60;;;2.00;;
64520;SDS011;50896;46.714;17.322;2023-04-02T18:36:52;2.75;;;2.30;;
64520;SDS011;50896;46.714;17.322;2023-04-02T18:47:14;3.90;;;2.55;;
64520;SDS011;50896;46.714;17.322;2023-04-02T18:50:29;3.10;;;2.25;;
64520;SDS011;50896;46.714;17.322;2023-04-02T18:52:47;3.08;;;2.30;;
64520;SDS011;50896;46.714;17.322;2023-04-02T18:55:29;2.92;;;2.25;;
64520;SDS011;50896;46.714;17.322;2023-04-02T18:58:01;2.65;;;2.42;;
64520;SDS011;50896;46.714;17.322;2023-04-02T19:00:33;3.67;;;2.33;;
64520;SDS011;50896;46.714;17.322;2023-04-02T19:08:11;4.20;;;2.35;;
64520;SDS011;50896;46.714;17.322;2023-04-02T19:10:44;3.28;;;2.38;;
64520;SDS011;50896;46.714;17.322;2023-04-02T19:13:15;3.22;;;2.13;;
64520;SDS011;50896;46.714;17.322;2023-04-02T19:21:25;2.85;;;2.17;;
64520;SDS011;50896;46.714;17.322;2023-04-02T19:40:58;3.60;;;2.45;;
64520;SDS011;50896;46.714;17.322;2023-04-02T19:43:40;3.90;;;2.85;;
64520;SDS011;50896;46.714;17.322;2023-04-02T19:46:07;3.88;;;2.65;;
64520;SDS011;50896;46.714;17.322;2023-04-02T19:48:49;4.32;;;2.72;;
64520;SDS011;50896;46.714;17.322;2023-04-02T19:51:38;4.95;;;2.85;;
64520;SDS011;50896;46.714;17.322;2023-04-02T19:54:05;6.30;;;3.55;;
64520;SDS011;50896;46.714;17.322;2023-04-02T19:56:32;10.85;;;3.72;;
64520;SDS011;50896;46.714;17.322;2023-04-02T19:58:59;3.65;;;3.10;;
64520;SDS011;50896;46.714;17.322;2023-04-02T20:01:42;3.88;;;2.92;;
64520;SDS011;50896;46.714;17.322;2023-04-02T20:04:09;3.63;;;3.05;;
64520;SDS011;50896;46.714;17.322;2023-04-02T20:06:36;3.50;;;2.85;;
64520;SDS011;50896;46.714;17.322;2023-04-02T20:09:02;3.78;;;2.90;;
64520;SDS011;50896;46.714;17.322;2023-04-02T20:11:29;5.90;;;3.13;;
64520;SDS011;50896;46.714;17.322;2023-04-02T20:13:56;3.88;;;3.00;;
64520;SDS011;50896;46.714;17.322;2023-04-02T20:16:23;4.30;;;2.90;;
64520;SDS011;50896;46.714;17.322;2023-04-02T20:18:50;4.38;;;3.30;;
64520;SDS011;50896;46.714;17.322;2023-04-02T20:21:17;4.15;;;3.08;;
64520;SDS011;50896;46.714;17.322;2023-04-02T20:23:44;3.72;;;3.33;;
64520;SDS011;50896;46.714;17.322;2023-04-02T20:26:11;4.00;;;2.90;;
64520;SDS011;50896;46.714;17.322;2023-04-02T20:28:38;4.50;;;2.92;;
64520;SDS011;50896;46.714;17.322;2023-04-02T20:31:12;4.43;;;3.22;;
64520;SDS011;50896;46.714;17.322;2023-04-02T20:33:41;3.92;;;3.20;;
64520;SDS011;50896;46.714;17.322;2023-04-02T20:36:11;5.00;;;3.33;;
64520;SDS011;50896;46.714;17.322;2023-04-02T20:38:39;4.97;;;3.50;;
64520;SDS011;50896;46.714;17.322;2023-04-02T20:41:06;3.42;;;3.00;;
64520;SDS011;50896;46.714;17.322;2023-04-02T20:43:34;4.25;;;2.95;;
64520;SDS011;50896;46.714;17.322;2023-04-02T20:46:02;3.95;;;3.13;;
64520;SDS011;50896;46.714;17.322;2023-04-02T20:48:31;3.58;;;3.00;;
64520;SDS011;50896;46.714;17.322;2023-04-02T20:50:59;4.85;;;3.38;;
64520;SDS011;50896;46.714;17.322;2023-04-02T20:53:28;4.25;;;3.50;;
64520;SDS011;50896;46.714;17.322;2023-04-02T20:56:07;3.40;;;3.00;;
64520;SDS011;50896;46.714;17.322;2023-04-02T20:58:36;3.95;;;3.17;;
64520;SDS011;50896;46.714;17.322;2023-04-02T21:01:07;4.28;;;2.90;;
64520;SDS011;50896;46.714;17.322;2023-04-02T21:03:37;4.50;;;3.00;;
64520;SDS011;50896;46.714;17.322;2023-04-02T21:06:06;3.63;;;2.97;;
64520;SDS011;50896;46.714;17.322;2023-04-02T21:08:39;5.13;;;2.90;;
64520;SDS011;50896;46.714;17.322;2023-04-02T21:11:06;3.08;;;2.75;;
64520;SDS011;50896;46.714;17.322;2023-04-02T21:13:33;3.53;;;3.05;;
64520;SDS011;50896;46.714;17.322;2023-04-02T21:16:05;3.50;;;2.83;;
64520;SDS011;50896;46.714;17.322;2023-04-02T21:18:39;4.00;;;3.03;;
64520;SDS011;50896;46.714;17.322;2023-04-02T21:21:06;4.40;;;3.05;;
64520;SDS011;50896;46.714;17.322;2023-04-02T21:23:33;3.70;;;3.30;;
64520;SDS011;50896;46.714;17.322;2023-04-02T21:26:01;4.22;;;3.22;;
64520;SDS011;50896;46.714;17.322;2023-04-02T21:28:30;4.70;;;3.50;;
64520;SDS011;50896;46.714;17.322;2023-04-02T21:31:02;4.30;;;3.28;;
64520;SDS011;50896;46.714;17.322;2023-04-02T21:33:29;4.82;;;3.13;;